createdAt,value
2017-08-19T00:00:56.691Z,90.82
2017-08-19T00:03:24.620Z,90.85
2017-08-19T00:05:52.527Z,91.19
2017-08-19T00:08:20.427Z,91.22
2017-08-19T00:10:48.460Z,91.19
2017-08-19T00:13:16.368Z,91.19
2017-08-19T00:15:44.263Z,91.51
2017-08-19T00:18:12.189Z,91.76
2017-08-19T00:20:40.100Z,91.79
2017-08-19T00:23:08.006Z,91.73
2017-08-19T00:25:35.907Z,91.66
2017-08-19T00:28:03.934Z,91.20
2017-08-19T00:30:31.826Z,91.86
2017-08-19T00:33:00.146Z,92.00
2017-08-19T00:35:28.050Z,91.77
2017-08-19T00:37:55.957Z,92.13
2017-08-19T00:40:23.857Z,91.94
2017-08-19T00:42:51.754Z,92.18
2017-08-19T00:45:20.039Z,91.80
2017-08-19T00:47:47.952Z,91.80
2017-08-19T00:50:15.855Z,92.30
2017-08-19T00:52:43.784Z,92.24
2017-08-19T00:55:11.687Z,92.23
2017-08-19T00:57:39.590Z,91.98
2017-08-19T01:00:07.490Z,92.14
2017-08-19T01:02:35.411Z,92.45
2017-08-19T01:05:03.391Z,92.97
2017-08-19T01:07:31.302Z,92.94
2017-08-19T01:09:59.223Z,92.51
2017-08-19T01:12:27.547Z,92.68
2017-08-19T01:14:55.437Z,92.68
2017-08-19T01:17:23.344Z,92.65
2017-08-19T01:19:51.868Z,92.70
2017-08-19T01:22:19.768Z,92.82
2017-08-19T01:24:47.817Z,92.97
2017-08-19T01:27:15.710Z,92.65
2017-08-19T01:29:43.628Z,92.67
2017-08-19T01:32:11.554Z,92.67
2017-08-19T01:34:39.631Z,92.74
2017-08-19T01:37:07.540Z,92.63
2017-08-19T01:39:35.430Z,92.61
2017-08-19T01:42:03.336Z,92.10
2017-08-19T01:44:31.252Z,91.80
2017-08-19T01:46:59.431Z,91.77
2017-08-19T01:49:27.335Z,91.89
2017-08-19T01:51:55.405Z,91.55
2017-08-19T01:54:23.303Z,91.48
2017-08-19T01:56:51.207Z,91.48
2017-08-19T01:59:19.128Z,91.19
2017-08-19T02:01:47.033Z,91.66
2017-08-19T02:04:14.942Z,91.59
2017-08-19T02:06:42.833Z,91.26
2017-08-19T02:09:10.744Z,91.33
2017-08-19T02:11:38.741Z,91.75
2017-08-19T02:14:06.859Z,91.32
2017-08-19T02:16:34.758Z,91.17
2017-08-19T02:19:02.687Z,91.29
2017-08-19T02:21:30.912Z,90.97
2017-08-19T02:23:58.811Z,91.07
2017-08-19T02:26:26.716Z,91.26
2017-08-19T02:28:54.628Z,91.36
2017-08-19T02:31:22.522Z,91.46
2017-08-19T02:33:50.427Z,91.18
2017-08-19T02:36:18.335Z,91.00
2017-08-19T02:38:46.441Z,91.21
2017-08-19T02:41:14.337Z,90.82
2017-08-19T02:43:42.244Z,91.21
2017-08-19T02:46:10.157Z,91.24
2017-08-19T02:48:38.065Z,91.42
2017-08-19T02:51:05.980Z,90.98
2017-08-19T02:53:34.216Z,91.29
2017-08-19T02:56:02.447Z,90.99
2017-08-19T02:58:30.361Z,91.26
2017-08-19T03:00:58.250Z,91.60
2017-08-19T03:03:26.168Z,91.65
2017-08-19T03:05:54.061Z,91.56
2017-08-19T03:08:21.966Z,91.66
2017-08-19T03:10:49.866Z,91.26
2017-08-19T03:13:17.781Z,91.20
2017-08-19T03:15:45.692Z,91.66
2017-08-19T03:18:13.976Z,91.47
2017-08-19T03:20:41.874Z,92.11
2017-08-19T03:23:09.771Z,92.40
2017-08-19T03:25:37.688Z,92.66
2017-08-19T03:28:05.591Z,92.58
2017-08-19T03:30:33.504Z,92.50
2017-08-19T03:33:01.404Z,92.22
2017-08-19T03:35:29.318Z,92.39
2017-08-19T03:37:57.235Z,92.44
2017-08-19T03:40:25.140Z,92.21
2017-08-19T03:42:53.047Z,92.06
2017-08-19T03:45:20.954Z,92.00
2017-08-19T03:47:48.863Z,91.71
2017-08-19T03:50:16.764Z,91.56
2017-08-19T03:52:44.672Z,90.98
2017-08-19T03:55:13.007Z,90.94
2017-08-19T03:57:40.912Z,90.41
2017-08-19T04:00:08.802Z,90.28
2017-08-19T04:02:36.720Z,90.11
2017-08-19T04:05:04.624Z,90.53
2017-08-19T04:07:32.846Z,90.17
2017-08-19T04:10:00.830Z,90.17
2017-08-19T04:12:28.726Z,90.45
2017-08-19T04:14:56.626Z,90.61
2017-08-19T04:17:24.535Z,90.55
2017-08-19T04:19:52.452Z,90.23
2017-08-19T04:22:20.367Z,90.46
2017-08-19T04:24:48.555Z,90.12
2017-08-19T04:27:16.468Z,89.81
2017-08-19T04:29:44.374Z,89.04
2017-08-19T04:32:12.310Z,89.66
2017-08-19T04:34:40.229Z,89.61
2017-08-19T04:37:08.144Z,89.28
2017-08-19T04:39:36.052Z,89.20
2017-08-19T04:42:04.339Z,89.26
2017-08-19T04:44:32.248Z,88.86
2017-08-19T04:47:00.142Z,88.96
2017-08-19T04:49:28.286Z,87.97
2017-08-19T04:51:56.200Z,87.56
2017-08-19T04:54:24.102Z,87.64
2017-08-19T04:56:52.060Z,85.61
2017-08-19T04:59:20.126Z,84.16
2017-08-19T05:01:48.029Z,83.60
2017-08-19T05:04:15.932Z,82.26
2017-08-19T05:06:43.834Z,81.38
2017-08-19T05:09:11.730Z,81.71
2017-08-19T05:11:39.631Z,81.82
2017-08-19T05:14:07.548Z,82.16
2017-08-19T05:16:35.711Z,82.05
2017-08-19T05:19:03.684Z,81.15
2017-08-19T05:21:31.578Z,80.96
2017-08-19T05:23:59.496Z,80.81
2017-08-19T05:26:27.400Z,80.54
2017-08-19T05:28:55.320Z,80.26
2017-08-19T05:31:23.226Z,81.14
2017-08-19T05:33:51.167Z,81.04
2017-08-19T05:36:19.072Z,81.29
2017-08-19T05:38:47.426Z,81.05
2017-08-19T05:41:15.326Z,81.15
2017-08-19T05:43:43.240Z,80.73
2017-08-19T05:46:11.137Z,80.16
2017-08-19T05:48:39.044Z,79.30
2017-08-19T05:51:06.956Z,78.73
2017-08-19T05:53:34.855Z,78.06
2017-08-19T05:56:02.773Z,77.03
2017-08-19T05:58:30.676Z,77.76
2017-08-19T06:00:58.657Z,76.57
2017-08-19T06:03:26.564Z,75.52
2017-08-19T06:05:54.596Z,74.56
2017-08-19T06:08:22.488Z,74.62
2017-08-19T06:10:50.388Z,73.65
2017-08-19T06:13:18.299Z,73.82
2017-08-19T06:15:46.190Z,73.19
2017-08-19T06:18:14.252Z,72.81
2017-08-19T06:20:42.145Z,72.74
2017-08-19T06:23:10.052Z,72.41
2017-08-19T06:25:37.959Z,71.71
2017-08-19T06:28:05.867Z,71.79
2017-08-19T06:30:33.999Z,72.48
2017-08-19T06:33:01.900Z,72.69
2017-08-19T06:35:29.794Z,72.47
2017-08-19T06:37:57.702Z,71.97
2017-08-19T06:40:25.672Z,72.27
2017-08-19T06:42:53.883Z,72.50
2017-08-19T06:45:21.788Z,72.20
2017-08-19T06:47:49.689Z,72.23
2017-08-19T06:50:17.709Z,71.83
2017-08-19T06:52:45.927Z,71.20
2017-08-19T06:55:13.831Z,71.60
2017-08-19T06:57:41.739Z,71.79
2017-08-19T07:00:09.642Z,70.69
2017-08-19T07:02:37.546Z,69.35
2017-08-19T07:05:05.871Z,68.77
2017-08-19T07:07:33.762Z,68.02
2017-08-19T07:10:01.662Z,67.41
2017-08-19T07:12:29.584Z,67.04
2017-08-19T07:14:57.490Z,67.05
2017-08-19T07:17:25.404Z,67.06
2017-08-19T07:19:53.312Z,66.41
2017-08-19T07:22:21.229Z,65.90
2017-08-19T07:24:49.119Z,65.69
2017-08-19T07:27:17.442Z,65.13
2017-08-19T07:29:45.348Z,64.84
2017-08-19T07:32:13.251Z,64.30
2017-08-19T07:34:41.378Z,63.55
2017-08-19T07:37:09.270Z,61.51
2017-08-19T07:39:37.186Z,60.37
2017-08-19T07:42:05.082Z,60.05
2017-08-19T07:44:32.996Z,59.50
2017-08-19T07:47:00.900Z,59.04
2017-08-19T07:49:28.822Z,59.25
2017-08-19T07:51:56.718Z,57.99
2017-08-19T07:54:24.618Z,57.14
2017-08-19T07:56:52.510Z,55.31
2017-08-19T07:59:20.604Z,54.51
2017-08-19T08:01:48.633Z,54.06
2017-08-19T08:04:16.532Z,52.99
2017-08-19T08:06:44.435Z,52.96
2017-08-19T08:09:12.335Z,52.52
2017-08-19T08:11:40.250Z,52.96
2017-08-19T08:14:08.155Z,52.93
2017-08-19T08:16:36.067Z,50.87
2017-08-19T08:19:03.983Z,49.73
2017-08-19T08:21:32.228Z,48.59
2017-08-19T08:24:00.256Z,48.68
2017-08-19T08:26:28.167Z,48.00
2017-08-19T08:28:56.496Z,47.04
2017-08-19T08:31:24.886Z,46.68
2017-08-19T08:33:55.487Z,45.05
2017-08-19T08:36:25.275Z,46.27
2017-08-19T08:38:53.726Z,44.36
2017-08-19T08:41:22.641Z,43.77
2017-08-19T08:43:50.891Z,44.71
2017-08-19T08:46:18.789Z,45.83
2017-08-19T08:48:46.683Z,46.42
2017-08-19T08:51:14.594Z,46.13
2017-08-19T08:53:42.490Z,46.07
2017-08-19T08:56:10.416Z,45.28
2017-08-19T08:58:38.318Z,44.46
2017-08-19T09:01:06.240Z,42.66
2017-08-19T09:03:35.006Z,40.01
2017-08-19T09:06:03.222Z,40.57
2017-08-19T09:08:31.118Z,40.60
2017-08-19T09:10:59.027Z,38.78
2017-08-19T09:13:26.946Z,37.42
2017-08-19T09:15:54.861Z,36.47
2017-08-19T09:18:22.780Z,35.24
2017-08-19T09:20:50.688Z,36.00
2017-08-19T09:23:18.605Z,38.71
2017-08-19T09:25:46.498Z,39.10
2017-08-19T09:28:14.422Z,37.23
2017-08-19T09:30:42.606Z,33.95
2017-08-19T09:33:10.736Z,31.12
2017-08-19T09:35:38.647Z,30.34
2017-08-19T09:38:06.551Z,30.71
2017-08-19T09:40:34.467Z,32.35
2017-08-19T09:43:02.656Z,36.53
2017-08-19T09:45:30.800Z,38.67
2017-08-19T09:47:59.003Z,38.89
2017-08-19T09:50:27.040Z,39.53
2017-08-19T09:52:54.939Z,40.62
2017-08-19T09:55:22.837Z,39.47
2017-08-19T09:57:50.744Z,40.18
2017-08-19T10:00:18.637Z,41.03
2017-08-19T10:02:46.546Z,42.01
2017-08-19T10:05:14.468Z,42.85
2017-08-19T10:07:42.387Z,43.74
2017-08-19T10:13:11.696Z,44.55
2017-08-19T10:15:39.599Z,43.86
2017-08-19T10:18:07.498Z,44.30
2017-08-19T10:20:35.407Z,42.48
2017-08-19T10:23:03.324Z,40.90
2017-08-19T10:25:31.228Z,40.82
2017-08-19T10:27:59.344Z,40.24
2017-08-19T10:30:27.242Z,39.52
2017-08-19T10:32:55.147Z,37.94
2017-08-19T10:35:23.068Z,36.50
2017-08-19T10:37:50.976Z,34.58
2017-08-19T10:40:18.896Z,31.86
2017-08-19T10:42:46.795Z,30.55
2017-08-19T10:45:14.698Z,29.03
2017-08-19T10:47:42.608Z,28.40
2017-08-19T10:50:10.637Z,30.13
2017-08-19T10:52:38.537Z,32.35
2017-08-19T10:55:06.611Z,32.84
2017-08-19T10:57:34.548Z,32.44
2017-08-19T11:00:02.442Z,33.84
2017-08-19T11:02:30.355Z,33.34
2017-08-19T11:04:58.255Z,33.52
2017-08-19T11:07:26.176Z,33.21
2017-08-19T11:09:54.084Z,32.14
2017-08-19T11:12:22.057Z,33.30
2017-08-19T11:14:49.949Z,34.43
2017-08-19T11:17:17.854Z,34.96
2017-08-19T11:19:45.756Z,34.70
2017-08-19T11:22:13.884Z,33.59
2017-08-19T11:24:41.785Z,35.08
2017-08-19T11:27:09.960Z,36.89
2017-08-19T11:29:37.879Z,38.73
2017-08-19T11:32:05.779Z,40.09
2017-08-19T11:34:33.695Z,41.29
2017-08-19T11:37:01.606Z,42.44
2017-08-19T11:39:29.515Z,43.23
2017-08-19T11:41:57.410Z,43.74
2017-08-19T11:44:25.325Z,43.42
2017-08-19T11:46:53.227Z,43.42
2017-08-19T11:49:21.145Z,42.78
2017-08-19T11:51:49.057Z,43.06
2017-08-19T11:54:17.175Z,42.99
2017-08-19T11:56:45.072Z,43.37
2017-08-19T11:59:13.265Z,42.92
2017-08-19T12:01:41.171Z,41.96
2017-08-19T12:04:09.081Z,42.84
2017-08-19T12:06:36.995Z,42.73
2017-08-19T12:09:04.895Z,44.44
2017-08-19T12:11:32.812Z,42.84
2017-08-19T12:14:00.719Z,42.04
2017-08-19T12:16:28.712Z,42.68
2017-08-19T12:18:56.611Z,41.17
2017-08-19T12:21:24.852Z,40.99
2017-08-19T12:23:52.750Z,40.64
2017-08-19T12:26:20.653Z,40.28
2017-08-19T12:28:48.558Z,39.78
2017-08-19T12:31:16.459Z,41.42
2017-08-19T12:33:44.376Z,42.65
2017-08-19T12:36:12.284Z,41.32
2017-08-19T12:38:40.192Z,39.96
2017-08-19T12:41:08.105Z,39.99
2017-08-19T12:43:36.166Z,40.43
2017-08-19T12:46:04.066Z,39.77
2017-08-19T12:48:31.976Z,40.80
2017-08-19T12:50:59.878Z,42.14
2017-08-19T12:53:27.783Z,43.12
2017-08-19T12:55:55.687Z,42.96
2017-08-19T12:58:23.687Z,43.90
2017-08-19T13:00:51.608Z,44.36
2017-08-19T13:03:19.628Z,43.10
2017-08-19T13:05:47.687Z,42.82
2017-08-19T13:08:15.622Z,40.10
2017-08-19T13:10:43.538Z,38.55
2017-08-19T13:13:11.441Z,37.53
2017-08-19T13:15:39.348Z,36.35
2017-08-19T13:18:07.449Z,36.15
2017-08-19T13:20:35.351Z,35.97
2017-08-19T13:23:03.246Z,36.42
2017-08-19T13:25:31.163Z,36.68
2017-08-19T13:27:59.074Z,37.22
2017-08-19T13:30:26.983Z,37.08
2017-08-19T13:32:54.886Z,37.65
2017-08-19T13:35:23.123Z,38.07
2017-08-19T13:37:51.032Z,37.69
2017-08-19T13:40:18.940Z,37.62
2017-08-19T13:42:46.852Z,37.79
2017-08-19T13:45:15.054Z,38.71
2017-08-19T13:47:42.972Z,39.22
2017-08-19T13:50:10.870Z,38.18
2017-08-19T13:52:38.770Z,37.93
2017-08-19T13:55:06.679Z,38.35
2017-08-19T13:57:34.616Z,38.56
2017-08-19T14:00:02.763Z,37.98
2017-08-19T14:02:30.662Z,38.74
2017-08-19T14:04:58.579Z,38.00
2017-08-19T14:07:26.493Z,38.05
2017-08-19T14:09:54.399Z,37.68
2017-08-19T14:12:22.303Z,38.12
2017-08-19T14:14:50.221Z,38.14
2017-08-19T14:17:18.119Z,38.12
2017-08-19T14:19:46.323Z,38.19
2017-08-19T14:22:14.227Z,38.04
2017-08-19T14:24:42.338Z,38.07
2017-08-19T14:27:10.243Z,38.49
2017-08-19T14:29:38.155Z,38.12
2017-08-19T14:32:06.230Z,38.08
2017-08-19T14:34:34.125Z,38.58
2017-08-19T14:37:02.035Z,38.29
2017-08-19T14:39:29.934Z,38.28
2017-08-19T14:41:58.003Z,38.66
2017-08-19T14:44:25.913Z,38.23
2017-08-19T14:46:53.811Z,38.23
2017-08-19T14:49:21.727Z,38.71
2017-08-19T14:51:49.637Z,39.03
2017-08-19T14:54:17.543Z,39.80
2017-08-19T14:56:45.433Z,41.28
2017-08-19T14:59:13.355Z,41.43
2017-08-19T15:01:41.256Z,40.79
2017-08-19T15:04:09.162Z,40.69
2017-08-19T15:06:37.080Z,40.29
2017-08-19T15:09:05.513Z,40.16
2017-08-19T15:11:33.439Z,40.19
2017-08-19T15:14:01.356Z,39.71
2017-08-19T15:16:29.285Z,39.90
2017-08-19T15:18:57.178Z,40.48
2017-08-19T15:21:25.127Z,40.72
2017-08-19T15:23:53.021Z,40.87
2017-08-19T15:26:20.925Z,41.21
2017-08-19T15:28:48.826Z,41.13
2017-08-19T15:31:16.890Z,41.58
2017-08-19T15:33:44.791Z,41.56
2017-08-19T15:36:12.692Z,41.08
2017-08-19T15:38:40.615Z,41.27
2017-08-19T15:41:08.520Z,41.94
2017-08-19T15:43:36.446Z,42.27
2017-08-19T15:46:04.366Z,42.37
2017-08-19T15:48:32.289Z,42.81
2017-08-19T15:51:00.195Z,42.78
2017-08-19T15:53:28.121Z,42.80
2017-08-19T15:55:56.013Z,42.41
2017-08-19T15:58:23.927Z,42.91
2017-08-19T16:00:51.830Z,41.03
2017-08-19T16:03:19.896Z,40.32
2017-08-19T16:05:47.796Z,40.68
2017-08-19T16:08:15.694Z,41.32
2017-08-19T16:10:43.612Z,40.53
2017-08-19T16:13:11.572Z,41.03
2017-08-19T16:15:39.484Z,41.08
2017-08-19T16:18:07.382Z,41.63
2017-08-19T16:20:35.295Z,41.20
2017-08-19T16:23:03.204Z,41.23
2017-08-19T16:25:31.124Z,41.27
2017-08-19T16:27:59.032Z,41.67
2017-08-19T16:30:26.939Z,42.05
2017-08-19T16:32:54.844Z,42.27
2017-08-19T16:35:22.769Z,41.76
2017-08-19T16:37:50.670Z,42.57
2017-08-19T16:40:18.720Z,42.24
2017-08-19T16:42:46.618Z,42.88
2017-08-19T16:45:14.528Z,43.26
2017-08-19T16:47:42.538Z,43.38
2017-08-19T16:50:10.438Z,43.97
2017-08-19T16:52:38.356Z,43.69
2017-08-19T16:55:06.267Z,43.98
2017-08-19T16:57:34.176Z,43.98
2017-08-19T17:00:02.093Z,44.21
2017-08-19T17:02:30.292Z,45.07
2017-08-19T17:04:58.414Z,45.49
2017-08-19T17:07:26.315Z,45.74
2017-08-19T17:09:54.212Z,46.26
2017-08-19T17:12:22.114Z,45.55
2017-08-19T17:14:50.087Z,45.74
2017-08-19T17:17:18.316Z,45.99
2017-08-19T17:19:46.222Z,46.17
2017-08-19T17:22:14.129Z,45.66
2017-08-19T17:24:42.076Z,46.09
2017-08-19T17:27:09.993Z,46.13
2017-08-19T17:29:37.925Z,46.36
2017-08-19T17:32:05.986Z,46.58
2017-08-19T17:34:33.895Z,46.92
2017-08-19T17:37:01.804Z,46.93
2017-08-19T17:39:29.717Z,47.27
2017-08-19T17:41:57.631Z,47.68
2017-08-19T17:44:25.630Z,47.70
2017-08-19T17:46:53.540Z,48.19
2017-08-19T17:49:21.750Z,47.66
2017-08-19T17:51:49.647Z,47.64
2017-08-19T17:54:17.556Z,47.87
2017-08-19T17:56:45.476Z,48.05
2017-08-19T17:59:13.384Z,48.57
2017-08-19T18:01:41.290Z,48.89
2017-08-19T18:04:09.196Z,49.34
2017-08-19T18:06:37.359Z,49.40
2017-08-19T18:09:05.263Z,49.63
2017-08-19T18:11:33.159Z,50.29
2017-08-19T18:14:01.077Z,50.63
2017-08-19T18:16:28.993Z,51.23
2017-08-19T18:18:56.894Z,51.48
2017-08-19T18:21:24.799Z,52.29
2017-08-19T18:23:52.708Z,52.66
2017-08-19T18:26:20.620Z,53.10
2017-08-19T18:28:48.531Z,53.27
2017-08-19T18:31:16.697Z,53.51
2017-08-19T18:33:44.832Z,53.88
2017-08-19T18:36:12.741Z,54.46
2017-08-19T18:38:40.639Z,54.95
2017-08-19T18:41:08.580Z,55.14
2017-08-19T18:43:36.484Z,55.53
2017-08-19T18:46:04.401Z,55.78
2017-08-19T18:48:32.312Z,56.11
2017-08-19T18:51:00.219Z,56.46
2017-08-19T18:53:28.114Z,56.53
2017-08-19T18:55:56.019Z,56.64
2017-08-19T18:58:23.922Z,56.77
2017-08-19T19:00:52.082Z,57.08
2017-08-19T19:03:19.992Z,57.36
2017-08-19T19:05:47.905Z,57.75
2017-08-19T19:08:15.814Z,57.96
2017-08-19T19:10:43.723Z,58.29
2017-08-19T19:13:11.621Z,58.25
2017-08-19T19:15:39.522Z,58.21
2017-08-19T19:18:07.444Z,58.54
2017-08-19T19:20:35.693Z,58.87
2017-08-19T19:23:03.618Z,59.16
2017-08-19T19:25:31.527Z,59.30
2017-08-19T19:27:59.550Z,59.27
2017-08-19T19:30:27.447Z,59.43
2017-08-19T19:32:55.352Z,59.55
2017-08-19T19:35:23.259Z,59.83
2017-08-19T19:37:51.172Z,60.34
2017-08-19T19:40:19.088Z,60.63
2017-08-19T19:42:46.981Z,60.92
2017-08-19T19:45:14.899Z,61.23
2017-08-19T19:47:42.805Z,61.68
2017-08-19T19:50:10.710Z,61.91
2017-08-19T19:52:38.617Z,62.39
2017-08-19T19:55:06.533Z,62.41
2017-08-19T19:57:34.434Z,62.78
2017-08-19T20:00:02.372Z,63.12
2017-08-19T20:02:30.287Z,63.26
2017-08-19T20:04:58.195Z,63.58
2017-08-19T20:07:26.116Z,63.38
2017-08-19T20:09:54.082Z,63.82
2017-08-19T20:12:22.003Z,63.74
2017-08-19T20:14:49.894Z,64.31
2017-08-19T20:17:17.810Z,64.11
2017-08-19T20:19:45.707Z,64.52
2017-08-19T20:22:13.648Z,64.53
2017-08-19T20:24:41.570Z,64.55
2017-08-19T20:27:09.508Z,64.87
2017-08-19T20:29:37.440Z,65.08
2017-08-19T20:32:05.355Z,64.87
2017-08-19T20:34:33.279Z,65.16
2017-08-19T20:37:01.178Z,65.22
2017-08-19T20:39:29.102Z,65.27
2017-08-19T20:41:57.012Z,65.36
2017-08-19T20:44:24.951Z,65.16
2017-08-19T20:46:52.866Z,65.27
2017-08-19T20:49:20.780Z,65.50
2017-08-19T20:51:48.685Z,65.42
2017-08-19T20:54:16.910Z,65.82
2017-08-19T20:56:44.871Z,65.83
2017-08-19T20:59:12.776Z,65.52
2017-08-19T21:01:40.682Z,65.62
2017-08-19T21:04:08.609Z,65.32
2017-08-19T21:06:36.517Z,65.24
2017-08-19T21:09:04.426Z,65.72
2017-08-19T21:11:32.335Z,65.90
2017-08-19T21:14:00.255Z,65.88
2017-08-19T21:16:28.158Z,66.21
2017-08-19T21:18:56.070Z,66.33
2017-08-19T21:21:23.983Z,66.50
2017-08-19T21:23:52.096Z,67.11
2017-08-19T21:26:20.004Z,66.85
2017-08-19T21:28:47.991Z,66.74
2017-08-19T21:31:15.897Z,66.88
2017-08-19T21:33:43.826Z,67.07
2017-08-19T21:36:11.739Z,66.85
2017-08-19T21:38:39.638Z,67.18
2017-08-19T21:41:07.542Z,66.96
2017-08-19T21:43:35.454Z,66.94
2017-08-19T21:46:03.359Z,66.88
2017-08-19T21:48:31.288Z,67.09
2017-08-19T21:50:59.230Z,66.93
2017-08-19T21:53:27.364Z,67.27
2017-08-19T21:55:55.297Z,67.03
2017-08-19T21:58:23.221Z,67.69
2017-08-19T22:00:51.122Z,68.00
2017-08-19T22:03:19.026Z,68.28
2017-08-19T22:05:46.971Z,68.56
2017-08-19T22:08:14.878Z,68.51
2017-08-19T22:10:42.788Z,68.35
2017-08-19T22:13:10.690Z,68.37
2017-08-19T22:15:38.828Z,68.42
2017-08-19T22:18:06.767Z,68.02
2017-08-19T22:20:34.662Z,67.59
2017-08-19T22:23:02.572Z,67.47
2017-08-19T22:25:30.469Z,67.26
2017-08-19T22:27:58.375Z,67.16
2017-08-19T22:30:26.297Z,66.91
2017-08-19T22:32:54.212Z,66.96
2017-08-19T22:35:22.119Z,67.11
2017-08-19T22:37:50.014Z,67.58
2017-08-19T22:40:18.026Z,67.65
2017-08-19T22:42:45.994Z,68.38
2017-08-19T22:45:13.898Z,68.76
2017-08-19T22:47:41.852Z,68.93
2017-08-19T22:50:09.796Z,69.21
2017-08-19T22:52:37.708Z,69.42
2017-08-19T22:55:05.608Z,69.75
2017-08-19T22:57:33.517Z,69.95
2017-08-19T23:00:01.424Z,69.92
2017-08-19T23:02:29.325Z,70.01
2017-08-19T23:04:57.227Z,70.23
2017-08-19T23:07:25.131Z,70.90
2017-08-19T23:09:53.026Z,70.58
2017-08-19T23:12:20.940Z,70.88
2017-08-19T23:14:48.895Z,70.42
2017-08-19T23:17:16.817Z,70.16
2017-08-19T23:19:44.714Z,70.14
2017-08-19T23:22:12.618Z,70.48
2017-08-19T23:24:40.514Z,70.42
2017-08-19T23:27:08.438Z,70.91
2017-08-19T23:29:36.334Z,71.20
2017-08-19T23:32:04.270Z,71.24
2017-08-19T23:34:32.182Z,71.36
2017-08-19T23:37:00.078Z,71.32
2017-08-19T23:39:28.330Z,71.96
2017-08-19T23:41:56.231Z,72.35
2017-08-19T23:44:24.134Z,72.51
2017-08-19T23:46:52.039Z,72.77
2017-08-19T23:49:19.946Z,72.91
2017-08-19T23:51:47.840Z,73.16
2017-08-19T23:54:16.054Z,73.35
2017-08-19T23:56:43.954Z,73.51
2017-08-19T23:59:11.854Z,73.74
